createdAt,value
2019-03-05T00:00:46.578Z,9.03
2019-03-05T00:03:15.303Z,9.38
2019-03-05T00:05:43.977Z,8.73
2019-03-05T00:08:12.608Z,9.38
2019-03-05T00:10:41.097Z,9.40
2019-03-05T00:13:09.835Z,9.10
2019-03-05T00:15:38.536Z,9.38
2019-03-05T00:18:07.171Z,9.23
2019-03-05T00:20:35.943Z,7.60
2019-03-05T00:23:04.567Z,8.00
2019-03-05T00:25:37.628Z,8.05
2019-03-05T00:28:29.306Z,8.75
2019-03-05T00:31:03.522Z,8.98
2019-03-05T00:33:56.328Z,8.63
2019-03-05T00:36:30.443Z,8.88
2019-03-05T00:39:14.119Z,9.27
2019-03-05T00:41:45.655Z,9.40
2019-03-05T00:44:23.094Z,8.98
2019-03-05T00:46:57.643Z,8.83
2019-03-05T00:49:53.198Z,9.05
2019-03-05T00:52:45.735Z,9.08
2019-03-05T00:55:26.267Z,9.70
2019-03-05T00:58:10.048Z,8.98
2019-03-05T01:00:44.534Z,9.13
2019-03-05T01:03:25.092Z,9.10
2019-03-05T01:05:56.732Z,9.30
2019-03-05T01:08:25.439Z,8.28
2019-03-05T01:10:54.117Z,8.78
2019-03-05T01:13:22.890Z,9.40
2019-03-05T01:15:51.683Z,8.53
2019-03-05T01:18:20.324Z,8.63
2019-03-05T01:20:48.991Z,9.98
2019-03-05T01:23:17.554Z,10.63
2019-03-05T01:25:46.410Z,10.03
2019-03-05T01:28:15.264Z,9.58
2019-03-05T01:30:45.738Z,8.28
2019-03-05T01:33:16.408Z,8.38
2019-03-05T01:35:46.714Z,7.80
2019-03-05T01:38:15.343Z,8.95
2019-03-05T01:40:43.979Z,11.85
2019-03-05T01:43:12.589Z,12.28
2019-03-05T01:45:41.161Z,10.48
2019-03-05T01:48:15.578Z,9.30
2019-03-05T01:50:44.422Z,7.50
2019-03-05T01:53:12.928Z,7.47
2019-03-05T01:55:41.410Z,9.00
2019-03-05T01:58:10.072Z,7.70
2019-03-05T02:00:38.988Z,8.73
2019-03-05T02:03:07.545Z,7.03
2019-03-05T02:05:36.216Z,8.08
2019-03-05T02:08:04.843Z,7.87
2019-03-05T02:10:33.477Z,6.60
2019-03-05T02:13:02.069Z,6.90
2019-03-05T02:15:30.705Z,7.17
2019-03-05T02:17:59.192Z,7.20
2019-03-05T02:20:27.858Z,7.15
2019-03-05T02:23:02.381Z,7.08
2019-03-05T02:25:33.963Z,6.85
2019-03-05T02:28:20.267Z,7.40
2019-03-05T02:30:54.975Z,8.70
2019-03-05T02:33:50.783Z,7.28
2019-03-05T02:36:37.727Z,7.33
2019-03-05T02:39:38.252Z,7.50
2019-03-05T02:42:38.703Z,7.55
2019-03-05T02:45:25.215Z,6.75
2019-03-05T02:48:14.744Z,7.45
2019-03-05T02:51:10.656Z,8.33
2019-03-05T02:54:17.546Z,7.70
2019-03-05T02:57:08.578Z,7.80
2019-03-05T02:59:37.629Z,7.37
2019-03-05T03:02:08.919Z,9.88
2019-03-05T03:04:39.185Z,11.60
2019-03-05T03:07:07.767Z,8.70
2019-03-05T03:09:39.310Z,8.68
2019-03-05T03:12:07.942Z,10.13
2019-03-05T03:14:36.608Z,8.17
2019-03-05T03:17:05.102Z,9.95
2019-03-05T03:19:33.660Z,9.57
2019-03-05T03:22:02.513Z,11.00
2019-03-05T03:24:31.146Z,10.87
2019-03-05T03:26:59.706Z,11.15
2019-03-05T03:29:28.323Z,10.80
2019-03-05T03:31:56.955Z,10.13
2019-03-05T03:34:25.591Z,10.72
2019-03-05T03:36:54.313Z,9.45
2019-03-05T03:39:22.944Z,9.10
2019-03-05T03:41:51.501Z,8.98
2019-03-05T03:44:20.177Z,7.97
2019-03-05T03:46:48.801Z,7.85
2019-03-05T03:49:17.445Z,8.48
2019-03-05T03:51:45.976Z,7.03
2019-03-05T03:54:14.478Z,8.58
2019-03-05T03:56:43.095Z,10.97
2019-03-05T03:59:11.768Z,9.57
2019-03-05T04:01:40.310Z,10.13
2019-03-05T04:04:08.889Z,9.60
2019-03-05T04:06:37.650Z,9.53
2019-03-05T04:09:09.268Z,10.00
2019-03-05T04:11:37.927Z,10.60
2019-03-05T04:14:06.535Z,11.37
2019-03-05T04:16:35.273Z,11.88
2019-03-05T04:19:05.470Z,11.20
2019-03-05T04:21:34.145Z,11.43
2019-03-05T04:24:02.774Z,10.88
2019-03-05T04:26:31.270Z,10.60
2019-03-05T04:28:59.797Z,9.80
2019-03-05T04:31:28.358Z,17.30
2019-03-05T04:33:56.998Z,16.60
2019-03-05T04:36:25.622Z,18.60
2019-03-05T04:38:54.284Z,19.13
2019-03-05T04:41:22.909Z,15.70
2019-03-05T04:43:51.785Z,16.43
2019-03-05T04:46:33.583Z,13.77
2019-03-05T04:49:03.837Z,15.67
2019-03-05T04:51:34.120Z,15.65
2019-03-05T04:54:02.814Z,14.67
2019-03-05T04:56:31.389Z,22.13
2019-03-05T04:59:00.024Z,25.60
2019-03-05T05:01:28.513Z,23.43
2019-03-05T05:03:57.049Z,20.43
2019-03-05T05:06:25.676Z,18.30
2019-03-05T05:08:55.339Z,19.10
2019-03-05T05:11:23.944Z,17.82
2019-03-05T05:13:52.453Z,15.23
2019-03-05T05:16:21.090Z,14.13
2019-03-05T05:18:49.974Z,17.17
2019-03-05T05:21:18.541Z,18.50
2019-03-05T05:23:47.103Z,20.72
2019-03-05T05:26:17.701Z,19.77
2019-03-05T05:28:46.141Z,17.57
2019-03-05T05:31:14.716Z,18.75
2019-03-05T05:33:43.321Z,16.75
2019-03-05T05:36:11.955Z,19.75
2019-03-05T05:38:40.533Z,17.67
2019-03-05T05:41:09.214Z,17.48
2019-03-05T05:43:37.852Z,16.00
2019-03-05T05:46:06.342Z,13.62
2019-03-05T05:48:34.897Z,12.53
2019-03-05T05:51:03.543Z,13.40
2019-03-05T05:53:32.166Z,13.90
2019-03-05T05:56:00.699Z,14.78
2019-03-05T05:58:29.315Z,10.93
2019-03-05T06:00:59.590Z,16.42
2019-03-05T06:03:28.272Z,16.80
2019-03-05T06:05:56.784Z,12.45
2019-03-05T06:08:25.289Z,12.25
2019-03-05T06:10:53.957Z,13.40
2019-03-05T06:13:22.603Z,13.22
2019-03-05T06:15:51.157Z,11.85
2019-03-05T06:18:19.868Z,10.93
2019-03-05T06:20:48.502Z,12.15
2019-03-05T06:23:17.014Z,9.33
2019-03-05T06:25:45.647Z,9.35
2019-03-05T06:28:14.283Z,8.83
2019-03-05T06:30:43.870Z,9.50
2019-03-05T06:33:12.438Z,8.78
2019-03-05T06:35:41.074Z,12.40
2019-03-05T06:38:09.759Z,10.05
2019-03-05T06:40:38.327Z,10.93
2019-03-05T06:43:06.898Z,10.15
2019-03-05T06:45:35.765Z,10.08
2019-03-05T06:48:04.508Z,13.50
2019-03-05T06:50:33.010Z,10.40
2019-03-05T06:53:01.678Z,10.93
2019-03-05T06:55:30.405Z,14.38
2019-03-05T06:57:59.048Z,14.95
2019-03-05T07:00:34.357Z,10.78
2019-03-05T07:03:03.915Z,11.20
2019-03-05T07:06:10.867Z,11.97
2019-03-05T07:08:45.431Z,13.20
2019-03-05T07:11:38.285Z,12.78
2019-03-05T07:14:12.619Z,11.68
2019-03-05T07:16:53.063Z,11.97
2019-03-05T07:19:23.822Z,10.48
2019-03-05T07:22:22.532Z,11.90
2019-03-05T07:24:51.573Z,11.35
2019-03-05T07:27:23.366Z,12.00
2019-03-05T07:29:52.456Z,11.10
2019-03-05T07:32:21.025Z,12.78
2019-03-05T07:34:51.168Z,13.58
2019-03-05T07:37:19.855Z,13.75
2019-03-05T07:39:48.424Z,11.90
2019-03-05T07:42:17.125Z,11.03
2019-03-05T07:44:51.594Z,12.28
2019-03-05T07:47:20.161Z,13.95
2019-03-05T07:49:48.664Z,14.87
2019-03-05T07:52:17.350Z,13.22
2019-03-05T07:54:45.994Z,13.03
2019-03-05T07:57:14.567Z,13.50
2019-03-05T07:59:43.121Z,14.55
2019-03-05T08:02:11.802Z,13.78
2019-03-05T08:04:40.455Z,13.68
2019-03-05T08:07:09.306Z,14.45
2019-03-05T08:09:38.666Z,15.03
2019-03-05T08:12:16.226Z,14.38
2019-03-05T08:14:56.643Z,14.38
2019-03-05T08:17:26.081Z,12.73
2019-03-05T08:19:54.716Z,13.88
2019-03-05T08:22:23.558Z,12.93
2019-03-05T08:24:52.115Z,13.28
2019-03-05T08:27:23.500Z,13.18
2019-03-05T08:29:52.141Z,10.03
2019-03-05T08:32:20.833Z,9.63
2019-03-05T08:34:49.343Z,8.03
2019-03-05T08:37:17.978Z,6.67
2019-03-05T08:39:46.611Z,6.28
2019-03-05T08:42:15.181Z,7.00
2019-03-05T08:44:50.342Z,7.28
2019-03-05T08:47:14.144Z,5.80
2019-03-05T08:49:42.780Z,6.25
2019-03-05T08:52:11.494Z,6.72
2019-03-05T08:54:40.119Z,12.45
2019-03-05T08:57:08.747Z,12.00
2019-03-05T08:59:37.349Z,9.95
2019-03-05T09:02:05.985Z,9.48
2019-03-05T09:04:34.625Z,12.10
2019-03-05T09:07:03.231Z,8.90
2019-03-05T09:09:31.731Z,5.70
2019-03-05T09:12:00.358Z,4.55
2019-03-05T09:14:29.035Z,3.42
2019-03-05T09:16:57.600Z,1.80
2019-03-05T09:19:26.095Z,2.98
2019-03-05T09:21:54.761Z,2.20
2019-03-05T09:24:23.396Z,2.45
2019-03-05T09:26:51.951Z,1.90
2019-03-05T09:29:20.547Z,2.00
2019-03-05T09:31:49.190Z,2.72
2019-03-05T09:34:17.821Z,2.22
2019-03-05T09:36:51.078Z,2.85
2019-03-05T09:39:16.676Z,2.40
2019-03-05T09:41:45.317Z,1.90
2019-03-05T09:44:13.975Z,1.98
2019-03-05T09:46:42.537Z,2.50
2019-03-05T09:49:11.108Z,3.22
2019-03-05T09:51:39.735Z,2.47
2019-03-05T09:54:08.694Z,1.87
2019-03-05T09:56:37.287Z,2.55
2019-03-05T09:59:06.150Z,2.22
2019-03-05T10:01:35.127Z,3.12
2019-03-05T10:04:03.859Z,1.82
2019-03-05T10:06:32.495Z,3.15
2019-03-05T10:09:01.114Z,2.87
2019-03-05T10:11:29.742Z,2.80
2019-03-05T10:13:58.382Z,2.58
2019-03-05T10:16:26.921Z,2.47
2019-03-05T10:18:55.616Z,2.72
2019-03-05T10:21:24.114Z,2.58
2019-03-05T10:23:52.922Z,3.25
2019-03-05T10:26:28.217Z,2.15
2019-03-05T10:28:56.839Z,5.10
2019-03-05T10:31:25.393Z,3.22
2019-03-05T10:33:54.020Z,3.80
2019-03-05T10:36:22.768Z,2.60
2019-03-05T10:38:57.381Z,1.87
2019-03-05T10:41:22.003Z,2.08
2019-03-05T10:43:50.665Z,3.67
2019-03-05T10:46:19.540Z,2.87
2019-03-05T10:48:48.170Z,2.90
2019-03-05T10:51:16.929Z,2.27
2019-03-05T10:53:45.461Z,1.77
2019-03-05T10:56:14.099Z,3.15
2019-03-05T10:58:42.652Z,1.87
2019-03-05T11:01:11.798Z,2.15
2019-03-05T11:03:40.419Z,1.17
2019-03-05T11:06:09.153Z,1.00
2019-03-05T11:08:37.834Z,1.22
2019-03-05T11:11:13.368Z,1.15
2019-03-05T11:13:37.315Z,1.40
2019-03-05T11:16:06.573Z,1.60
2019-03-05T11:18:36.207Z,1.92
2019-03-05T11:21:06.337Z,1.80
2019-03-05T11:23:35.018Z,2.00
2019-03-05T11:26:03.853Z,1.95
2019-03-05T11:28:32.492Z,2.75
2019-03-05T11:31:01.157Z,2.42
2019-03-05T11:33:29.795Z,1.67
2019-03-05T11:35:58.361Z,2.00
2019-03-05T11:38:27.034Z,1.75
2019-03-05T11:40:55.597Z,1.62
2019-03-05T11:43:24.161Z,1.85
2019-03-05T11:45:52.829Z,1.42
2019-03-05T11:48:24.249Z,2.22
2019-03-05T11:50:52.837Z,1.27
2019-03-05T11:53:21.497Z,1.37
2019-03-05T11:55:50.131Z,1.70
2019-03-05T11:58:18.764Z,1.30
2019-03-05T12:00:54.961Z,2.98
2019-03-05T12:03:23.538Z,1.52
2019-03-05T12:05:52.158Z,1.15
2019-03-05T12:08:21.051Z,1.00
2019-03-05T12:10:49.612Z,1.65
2019-03-05T12:13:18.445Z,0.70
2019-03-05T12:15:47.226Z,1.67
2019-03-05T12:18:15.856Z,1.17
2019-03-05T12:20:44.427Z,1.20
2019-03-05T12:23:13.147Z,1.40
2019-03-05T12:25:41.911Z,1.40
2019-03-05T12:28:11.545Z,1.22
2019-03-05T12:30:40.487Z,1.00
2019-03-05T12:33:08.969Z,2.55
2019-03-05T12:35:37.744Z,1.60
2019-03-05T12:38:06.465Z,3.40
2019-03-05T12:40:35.030Z,0.90
2019-03-05T12:43:03.707Z,0.80
2019-03-05T12:45:32.340Z,1.10
2019-03-05T12:48:00.971Z,1.42
2019-03-05T12:50:31.375Z,1.30
2019-03-05T12:53:00.015Z,2.08
2019-03-05T12:55:28.685Z,1.02
2019-03-05T12:57:57.347Z,1.32
2019-03-05T13:00:28.689Z,0.90
2019-03-05T13:02:57.674Z,1.10
2019-03-05T13:05:26.314Z,3.22
2019-03-05T13:07:56.671Z,1.67
2019-03-05T13:10:26.465Z,2.20
2019-03-05T13:12:55.089Z,1.20
2019-03-05T13:15:31.683Z,1.37
2019-03-05T13:18:02.203Z,3.00
2019-03-05T13:20:30.842Z,1.62
2019-03-05T13:22:59.719Z,2.25
2019-03-05T13:25:29.719Z,4.17
2019-03-05T13:28:02.275Z,3.35
2019-03-05T13:30:32.952Z,2.25
2019-03-05T13:33:01.589Z,3.40
2019-03-05T13:35:32.035Z,3.22
2019-03-05T13:38:10.563Z,1.82
2019-03-05T13:40:40.683Z,3.52
2019-03-05T13:43:09.545Z,1.30
2019-03-05T13:45:38.273Z,2.05
2019-03-05T13:48:27.991Z,1.35
2019-03-05T13:51:14.774Z,2.37
2019-03-05T13:53:59.990Z,1.80
2019-03-05T13:56:37.740Z,2.52
2019-03-05T13:59:33.376Z,5.15
2019-03-05T14:02:03.040Z,2.45
2019-03-05T14:04:49.750Z,1.77
2019-03-05T14:07:42.699Z,2.87
2019-03-05T14:10:11.417Z,1.90
2019-03-05T14:12:40.008Z,3.50
2019-03-05T14:15:11.360Z,3.30
2019-03-05T14:17:41.377Z,3.17
2019-03-05T14:20:15.791Z,2.62
2019-03-05T14:22:44.405Z,3.40
2019-03-05T14:25:15.351Z,4.00
2019-03-05T14:27:44.114Z,6.25
2019-03-05T14:30:15.747Z,5.78
2019-03-05T14:32:44.573Z,6.20
2019-03-05T14:35:14.625Z,4.78
2019-03-05T14:37:43.573Z,4.25
2019-03-05T14:40:24.047Z,2.90
2019-03-05T14:42:45.548Z,8.50
2019-03-05T14:45:19.734Z,4.75
2019-03-05T14:47:48.389Z,4.95
2019-03-05T14:50:17.039Z,5.55
2019-03-05T14:52:45.704Z,3.30
2019-03-05T14:55:14.783Z,3.80
2019-03-05T14:57:43.424Z,3.37
2019-03-05T15:00:18.016Z,3.83
2019-03-05T15:02:46.767Z,3.02
2019-03-05T15:05:15.390Z,3.52
2019-03-05T15:07:44.123Z,3.62
2019-03-05T15:10:12.782Z,3.95
2019-03-05T15:12:41.341Z,3.37
2019-03-05T15:15:21.651Z,3.87
2019-03-05T15:17:50.797Z,3.50
2019-03-05T15:20:19.446Z,3.60
2019-03-05T15:22:48.039Z,3.65
2019-03-05T15:25:17.091Z,3.87
2019-03-05T15:27:45.723Z,3.65
2019-03-05T15:30:24.935Z,5.47
2019-03-05T15:32:53.507Z,6.67
2019-03-05T15:35:22.028Z,7.42
2019-03-05T15:37:50.677Z,7.53
2019-03-05T15:40:19.956Z,4.67
2019-03-05T15:42:48.630Z,6.25
2019-03-05T15:45:18.964Z,7.53
2019-03-05T15:47:47.708Z,6.50
2019-03-05T15:50:21.522Z,7.10
2019-03-05T15:52:50.184Z,6.70
2019-03-05T15:55:18.786Z,6.97
2019-03-05T15:57:47.396Z,8.43
2019-03-05T16:00:31.205Z,9.90
2019-03-05T16:03:00.881Z,13.05
2019-03-05T16:05:29.846Z,13.62
2019-03-05T16:08:00.867Z,12.07
2019-03-05T16:10:28.797Z,10.03
2019-03-05T16:12:57.436Z,5.25
2019-03-05T16:15:26.082Z,4.15
2019-03-05T16:17:54.742Z,4.00
2019-03-05T16:22:55.135Z,3.90
2019-03-05T16:25:24.515Z,4.42
2019-03-05T16:27:53.146Z,5.62
2019-03-05T16:30:47.221Z,5.37
2019-03-05T16:33:20.457Z,5.80
2019-03-05T16:36:06.923Z,5.67
2019-03-05T16:38:55.173Z,5.00
2019-03-05T16:41:34.170Z,4.67
2019-03-05T16:44:16.603Z,4.65
2019-03-05T16:46:55.634Z,5.50
2019-03-05T16:48:18.893Z,4.15
2019-03-05T16:49:25.904Z,4.33
2019-03-05T16:52:14.455Z,4.17
2019-03-05T16:54:47.484Z,4.80
2019-03-05T16:57:20.579Z,4.10
2019-03-05T16:59:50.863Z,5.05
2019-03-05T17:02:21.157Z,4.50
2019-03-05T17:04:51.480Z,4.72
2019-03-05T17:07:21.752Z,4.33
2019-03-05T17:09:51.963Z,5.87
2019-03-05T17:12:20.601Z,5.03
2019-03-05T17:14:49.243Z,6.15
2019-03-05T17:17:17.903Z,5.08
2019-03-05T17:19:46.749Z,4.75
2019-03-05T17:22:15.387Z,5.78
2019-03-05T17:24:44.053Z,4.80
2019-03-05T17:27:12.697Z,5.42
2019-03-05T17:29:41.181Z,5.40
2019-03-05T17:32:10.097Z,5.33
2019-03-05T17:34:38.738Z,4.62
2019-03-05T17:37:07.506Z,4.80
2019-03-05T17:39:35.997Z,4.62
2019-03-05T17:42:04.728Z,5.60
2019-03-05T17:44:34.862Z,3.62
2019-03-05T17:47:03.732Z,4.12
2019-03-05T17:49:32.293Z,4.33
2019-03-05T17:52:00.913Z,4.50
2019-03-05T17:54:29.546Z,4.47
2019-03-05T17:56:58.173Z,3.62
2019-03-05T17:59:26.708Z,5.53
2019-03-05T18:01:55.205Z,5.72
2019-03-05T18:04:23.845Z,4.87
2019-03-05T18:06:52.527Z,4.30
2019-03-05T18:09:21.165Z,5.12
2019-03-05T18:11:49.736Z,5.78
2019-03-05T18:14:18.402Z,4.95
2019-03-05T18:16:47.033Z,5.58
2019-03-05T18:19:15.536Z,5.12
2019-03-05T18:21:44.206Z,6.53
2019-03-05T18:24:12.696Z,7.60
2019-03-05T18:26:41.345Z,8.88
2019-03-05T18:29:10.038Z,10.23
2019-03-05T18:31:38.677Z,11.03
2019-03-05T18:34:07.325Z,11.33
2019-03-05T18:36:35.998Z,13.78
2019-03-05T18:39:05.410Z,14.70
2019-03-05T18:41:34.049Z,16.25
2019-03-05T18:44:02.943Z,18.52
2019-03-05T18:46:31.780Z,18.95
2019-03-05T18:49:03.157Z,17.62
2019-03-05T18:51:31.829Z,17.77
2019-03-05T18:54:00.385Z,15.83
2019-03-05T18:56:28.957Z,15.00
2019-03-05T18:58:57.638Z,13.28
2019-03-05T19:01:26.136Z,11.43
2019-03-05T19:03:54.777Z,9.68
2019-03-05T19:06:23.662Z,9.70
2019-03-05T19:08:52.227Z,6.53
2019-03-05T19:11:20.720Z,6.97
2019-03-05T19:13:49.489Z,6.08
2019-03-05T19:16:18.122Z,5.87
2019-03-05T19:18:46.613Z,5.87
2019-03-05T19:21:15.228Z,6.20
2019-03-05T19:23:43.862Z,8.95
2019-03-05T19:26:12.610Z,11.03
2019-03-05T19:28:41.180Z,11.65
2019-03-05T19:31:09.757Z,12.33
2019-03-05T19:33:38.441Z,11.22
2019-03-05T19:36:07.090Z,10.95
2019-03-05T19:38:35.600Z,11.20
2019-03-05T19:41:04.466Z,12.37
2019-03-05T19:43:33.051Z,11.45
2019-03-05T19:46:01.555Z,11.70
2019-03-05T19:48:30.315Z,9.85
2019-03-05T19:50:58.948Z,9.95
2019-03-05T19:53:30.481Z,10.35
2019-03-05T19:55:59.091Z,9.63
2019-03-05T19:58:27.722Z,8.10
2019-03-05T20:01:10.369Z,9.20
2019-03-05T20:03:39.001Z,7.83
2019-03-05T20:06:07.634Z,9.13
2019-03-05T20:08:40.085Z,10.08
2019-03-05T20:11:07.101Z,9.33
2019-03-05T20:13:35.626Z,8.80
2019-03-05T20:16:05.303Z,9.00
2019-03-05T20:18:33.937Z,8.65
2019-03-05T20:21:02.568Z,8.35
2019-03-05T20:23:31.243Z,10.20
2019-03-05T20:26:00.113Z,9.38
2019-03-05T20:28:28.654Z,8.95
2019-03-05T20:30:57.191Z,8.55
2019-03-05T20:33:25.816Z,8.25
2019-03-05T20:35:54.451Z,8.50
2019-03-05T20:38:23.049Z,8.30
2019-03-05T20:40:51.613Z,8.95
2019-03-05T20:43:20.249Z,9.98
2019-03-05T20:45:57.655Z,10.03
2019-03-05T20:48:26.219Z,10.28
2019-03-05T20:50:54.719Z,10.45
2019-03-05T20:53:23.446Z,8.85
2019-03-05T20:55:52.102Z,8.88
2019-03-05T20:58:20.593Z,7.03
2019-03-05T21:00:49.269Z,4.95
2019-03-05T21:03:17.834Z,4.55
2019-03-05T21:05:47.966Z,3.12
2019-03-05T21:08:16.639Z,3.25
2019-03-05T21:10:45.280Z,3.27
2019-03-05T21:13:16.374Z,3.12
2019-03-05T21:15:44.970Z,4.58
2019-03-05T21:18:19.580Z,4.83
2019-03-05T21:20:48.302Z,5.78
2019-03-05T21:23:17.279Z,6.97
2019-03-05T21:25:45.959Z,7.35
2019-03-05T21:28:14.582Z,6.60
2019-03-05T21:30:43.245Z,6.75
2019-03-05T21:33:11.868Z,5.87
2019-03-05T21:35:40.607Z,4.80
2019-03-05T21:38:09.274Z,4.45
2019-03-05T21:40:37.834Z,3.72
2019-03-05T21:43:06.458Z,3.98
2019-03-05T21:45:40.835Z,3.52
2019-03-05T21:48:09.465Z,4.10
2019-03-05T21:50:38.027Z,3.20
2019-03-05T21:53:06.917Z,3.80
2019-03-05T21:55:35.553Z,4.10
2019-03-05T21:58:04.377Z,4.00
2019-03-05T22:00:34.246Z,3.20
2019-03-05T22:03:03.277Z,3.47
2019-03-05T22:05:31.967Z,5.53
2019-03-05T22:08:00.493Z,6.08
2019-03-05T22:10:29.053Z,7.22
2019-03-05T22:12:57.685Z,6.40
2019-03-05T22:15:30.928Z,6.17
2019-03-05T22:17:59.667Z,5.40
2019-03-05T22:20:28.461Z,3.08
2019-03-05T22:22:57.514Z,2.87
2019-03-05T22:25:26.236Z,2.50
2019-03-05T22:27:54.861Z,2.05
2019-03-05T22:30:26.070Z,2.98
2019-03-05T22:32:54.694Z,3.08
2019-03-05T22:35:23.436Z,3.10
2019-03-05T22:38:00.880Z,3.45
2019-03-05T22:40:29.612Z,4.10
2019-03-05T22:42:58.160Z,4.15
2019-03-05T22:45:31.286Z,4.45
2019-03-05T22:47:59.912Z,4.47
2019-03-05T22:50:28.528Z,4.20
2019-03-05T22:52:57.129Z,3.40
2019-03-05T22:55:25.686Z,3.75
2019-03-05T22:57:54.406Z,4.20
2019-03-05T23:00:55.023Z,4.05
2019-03-05T23:03:26.154Z,2.58
2019-03-05T23:05:54.774Z,1.80
2019-03-05T23:08:23.502Z,1.65
2019-03-05T23:10:52.439Z,1.52
2019-03-05T23:13:21.099Z,1.20
2019-03-05T23:15:50.185Z,1.07
2019-03-05T23:18:19.006Z,0.80
2019-03-05T23:20:47.749Z,0.80
2019-03-05T23:23:16.240Z,0.55
2019-03-05T23:25:44.783Z,0.70
2019-03-05T23:28:13.551Z,0.80
2019-03-05T23:30:42.178Z,0.60
2019-03-05T23:33:10.845Z,1.02
2019-03-05T23:35:39.442Z,0.90
2019-03-05T23:38:08.069Z,0.90
2019-03-05T23:40:36.560Z,1.17
2019-03-05T23:43:05.471Z,1.20
2019-03-05T23:45:34.595Z,1.45
2019-03-05T23:48:03.087Z,1.05
2019-03-05T23:50:31.621Z,1.30
2019-03-05T23:53:00.254Z,1.17
2019-03-05T23:55:29.151Z,1.20
2019-03-05T23:57:57.720Z,1.40
